Flight Track Log - Related Links

Times and Time Zones

All times are in EDT time to prevent confusion due to time zone crossing. See the QXE2422 flight status page for this flight to view local times or setup timezone preferences in your user account.


Time Position Orientation Groundspeed Altitude Reporting Facility
EDT Latitude Longitude Course Direction KTS MPH feet Rate Location/Type
Thu 11:59:48 AM 43.5342 -116.1589 296° West 182 209 4,800  Level Salt Lake Center
Thu 12:00:50 PM 43.4967 -116.2075 223° Southwest 218 251 6,500 1,440 Climbing Salt Lake Center
Thu 12:01:53 PM 43.5328 -116.2889 301° West 248 285 7,800 1,403 Climbing Salt Lake Center
Thu 12:02:54 PM 43.5797 -116.3786 306° West 275 316 9,400 1,463 Climbing Salt Lake Center
Thu 12:03:56 PM 43.6261 -116.4664 306° West 283 326 10,800 1,306 Climbing Salt Lake Center
Thu 12:04:58 PM 43.6647 -116.5592 300° West 290 334 12,100 1,306 Climbing Salt Lake Center
Thu 12:05:00 PM 43.7785 -116.8289 296° West  Level Estimated
Thu 12:06:00 PM 43.7108 -116.6708 300° West 297 342 13,500  Level Salt Lake Center
Thu 12:07:02 PM 43.7514 -116.7689 300° West 303 349 14,700 1,161 Climbing Salt Lake Center
Thu 12:08:04 PM 43.7986 -116.8856 299° West 310 357 15,900 1,065 Climbing Salt Lake Center
Thu 12:09:06 PM 43.8403 -116.9861 300° West 313 360 16,900 968 Climbing Salt Lake Center
Thu 12:10:08 PM 43.8892 -117.1069 299° West 320 368 17,900 968 Climbing Salt Lake Center
Thu 12:11:10 PM 43.9294 -117.2094 299° West 317 365 18,900 1,016 Climbing Salt Lake Center
Thu 12:12:12 PM 43.9778 -117.3275 300° West 315 362 20,000 968 Climbing Salt Lake Center
Thu 12:13:14 PM 44.0181 -117.4297 299° West 315 362 20,900 823 Climbing Salt Lake Center
Thu 12:14:16 PM 44.0586 -117.5314 299° West 314 361 21,700 532 Climbing Salt Lake Center
Thu 12:15:18 PM 44.1067 -117.6533 299° West 321 369 22,000 145 Climbing Salt Lake Center
Thu 12:16:20 PM 44.1494 -117.7614 299° West 331 381 22,000  Level Salt Lake Center
Thu 12:17:21 PM 44.2003 -117.8878 299° West 336 387 22,000  Level Salt Lake Center
Thu 12:18:23 PM 44.2425 -117.9958 299° West 332 382 22,000  Level Salt Lake Center
Thu 12:19:25 PM 44.2922 -118.1222 299° West 333 383 22,000  Level Salt Lake Center
Thu 12:20:27 PM 44.3339 -118.2328 298° West 334 384 22,000  Level Salt Lake Center
Thu 12:21:29 PM 44.3850 -118.3606 299° West 336 387 22,000  Level Salt Lake Center
Thu 12:22:05 PM 44.4061 -118.4161 298° West 337 388 22,000  Level Seattle Center
Thu 12:22:31 PM 44.4242 -118.4622 299° West 337 388 22,000  Level Salt Lake Center
Thu 12:23:33 PM 44.4686 -118.5778 298° West 338 389 22,000  Level Salt Lake Center
Thu 12:24:08 PM 44.4942 -118.6456 298° West 336 387 22,000  Level Seattle Center
Thu 12:25:09 PM 44.5381 -118.7603 298° West 334 384 22,000  Level Seattle Center
Thu 12:27:00 PM 44.5926 -118.8980 299° West  Level FlightAware Approximate

Login

Don't have an account? Register now (free) for customized features, flight alerts, and more!